Terminal Aerodrome Forecast
Issued by NWS

Home | Current Version | Previous Version | Text Only | Print | Product List | Glossary On
Versions: 1 2 3 4 5 6 7 8 9 10 11 12 13 14 15 16
024
FTUS42 KFFC 141735
TAFPDK
TAF
KPDK 141735Z 1418/1518 13009KT P6SM SCT070 BKN250
     FM142300 12008KT P6SM BKN060
     FM150600 11006KT P6SM BKN030
     FM150900 11006KT P6SM OVC015
     FM151100 12006KT P6SM VCSH OVC012 PROB30 1511/1517 6SM -DZ BR
      OVC007
     FM151700 13008KT 5SM BR VCSH OVC006=

USA.gov is the U.S. government's official web portal to all federal, state and local government web resources and services.